createdAt,value
2017-07-23T00:00:27.812Z,0
2017-07-23T00:01:08.702Z,0
2017-07-23T00:01:49.602Z,0
2017-07-23T00:02:30.477Z,0
2017-07-23T00:03:11.363Z,0
2017-07-23T00:03:52.254Z,0
2017-07-23T00:04:33.133Z,0
2017-07-23T00:05:14.029Z,0
2017-07-23T00:05:54.909Z,0
2017-07-23T00:06:35.800Z,0
2017-07-23T00:07:16.689Z,0
2017-07-23T00:07:57.571Z,0
2017-07-23T00:08:38.474Z,0
2017-07-23T00:09:19.345Z,0
2017-07-23T00:10:00.237Z,0
2017-07-23T00:10:41.120Z,0
2017-07-23T00:11:22.008Z,0
2017-07-23T00:12:02.883Z,0
2017-07-23T00:12:43.773Z,0
2017-07-23T00:13:24.675Z,0
2017-07-23T00:14:05.569Z,0
2017-07-23T00:14:46.454Z,0
2017-07-23T00:15:27.357Z,0
2017-07-23T00:16:08.261Z,0
2017-07-23T00:16:49.145Z,0
2017-07-23T00:17:30.067Z,0
2017-07-23T00:18:10.967Z,0
2017-07-23T00:18:51.865Z,0
2017-07-23T00:19:32.761Z,0
2017-07-23T00:20:13.650Z,0
2017-07-23T00:20:54.545Z,0
2017-07-23T00:21:35.438Z,0
2017-07-23T00:22:16.322Z,0
2017-07-23T00:22:57.232Z,0
2017-07-23T00:23:38.124Z,0
2017-07-23T00:24:19.023Z,0
2017-07-23T00:24:59.905Z,0
2017-07-23T00:25:40.830Z,0
2017-07-23T00:26:21.743Z,0
2017-07-23T00:27:02.630Z,0
2017-07-23T00:27:43.515Z,0
2017-07-23T00:28:24.395Z,0
2017-07-23T00:29:05.284Z,0
2017-07-23T00:29:46.192Z,0
2017-07-23T00:30:27.070Z,0
2017-07-23T00:31:07.959Z,0
2017-07-23T00:31:48.876Z,0
2017-07-23T00:32:29.755Z,0
2017-07-23T00:33:10.657Z,0
2017-07-23T00:33:51.542Z,0
2017-07-23T00:34:32.430Z,0
2017-07-23T00:35:13.356Z,0
2017-07-23T00:35:54.239Z,0
2017-07-23T00:36:35.130Z,0
2017-07-23T00:37:16.043Z,0
2017-07-23T00:37:56.922Z,0
2017-07-23T00:38:37.808Z,0
2017-07-23T00:39:18.736Z,0
2017-07-23T00:39:59.600Z,0
2017-07-23T00:40:40.496Z,0
2017-07-23T00:41:21.385Z,0
2017-07-23T00:42:02.274Z,0
2017-07-23T00:42:43.164Z,0
2017-07-23T00:43:24.056Z,0
2017-07-23T00:44:04.943Z,0
2017-07-23T00:44:45.831Z,0
2017-07-23T00:45:26.720Z,0
2017-07-23T00:46:07.617Z,0
2017-07-23T00:46:48.508Z,0
2017-07-23T00:47:29.414Z,0
2017-07-23T00:48:10.301Z,0
2017-07-23T00:48:51.208Z,0
2017-07-23T00:49:32.108Z,0
2017-07-23T00:50:13.003Z,0
2017-07-23T00:50:53.890Z,0
2017-07-23T00:51:34.789Z,0
2017-07-23T00:52:15.673Z,0
2017-07-23T00:52:56.560Z,0
2017-07-23T00:53:37.465Z,0
2017-07-23T00:54:18.351Z,0
2017-07-23T00:54:59.254Z,0
2017-07-23T00:55:40.143Z,0
2017-07-23T00:56:21.029Z,0
2017-07-23T00:57:01.914Z,0
2017-07-23T00:57:42.801Z,0
2017-07-23T00:58:23.683Z,0
2017-07-23T00:59:04.592Z,0
2017-07-23T00:59:45.492Z,0
2017-07-23T01:00:26.381Z,0
2017-07-23T01:01:07.271Z,0
2017-07-23T01:01:48.171Z,0
2017-07-23T01:02:29.050Z,0
2017-07-23T01:03:09.940Z,0
2017-07-23T01:03:50.847Z,0
2017-07-23T01:04:31.727Z,0
2017-07-23T01:05:12.619Z,0
2017-07-23T01:05:53.507Z,0
2017-07-23T01:06:34.406Z,0
2017-07-23T01:07:15.294Z,0
2017-07-23T01:07:56.183Z,0
2017-07-23T01:08:37.066Z,0
2017-07-23T01:09:17.951Z,0
2017-07-23T01:09:58.845Z,0
2017-07-23T01:10:39.740Z,0
2017-07-23T01:11:20.619Z,0
2017-07-23T01:12:01.500Z,0
2017-07-23T01:12:42.396Z,0
2017-07-23T01:13:23.292Z,0
2017-07-23T01:14:04.179Z,0
2017-07-23T01:14:45.066Z,0
2017-07-23T01:15:25.977Z,0
2017-07-23T01:16:06.837Z,0
2017-07-23T01:16:47.729Z,0
2017-07-23T01:17:28.620Z,0
2017-07-23T01:18:09.508Z,0
2017-07-23T01:18:50.411Z,0
2017-07-23T01:19:31.298Z,0
2017-07-23T01:20:12.209Z,0
2017-07-23T01:20:53.102Z,0
2017-07-23T01:21:33.996Z,0
2017-07-23T01:22:14.909Z,0
2017-07-23T01:22:55.817Z,0
2017-07-23T01:23:36.703Z,0
2017-07-23T01:24:17.591Z,0
2017-07-23T01:24:58.495Z,0
2017-07-23T01:25:39.400Z,0
2017-07-23T01:26:20.298Z,0
2017-07-23T01:27:01.168Z,0
2017-07-23T01:27:42.053Z,0
2017-07-23T01:28:22.943Z,0
2017-07-23T01:29:03.839Z,0
2017-07-23T01:29:44.728Z,0
2017-07-23T01:30:25.630Z,0
2017-07-23T01:31:06.530Z,0
2017-07-23T01:31:47.405Z,0
2017-07-23T01:32:28.303Z,0
2017-07-23T01:33:09.194Z,0
2017-07-23T01:33:50.079Z,0
2017-07-23T01:34:30.981Z,0
2017-07-23T01:35:11.874Z,0
2017-07-23T01:35:52.756Z,0
2017-07-23T01:36:33.641Z,0
2017-07-23T01:37:14.523Z,0
2017-07-23T01:37:55.408Z,0
2017-07-23T01:38:36.310Z,0
2017-07-23T01:39:17.200Z,0
2017-07-23T01:39:58.078Z,0
2017-07-23T01:40:38.968Z,0
2017-07-23T01:41:19.861Z,0
2017-07-23T01:42:00.755Z,0
2017-07-23T01:42:41.645Z,0
2017-07-23T01:43:22.534Z,0
2017-07-23T01:44:03.431Z,0
2017-07-23T01:44:44.337Z,0
2017-07-23T01:45:25.225Z,0
2017-07-23T01:46:06.107Z,0
2017-07-23T01:46:46.999Z,0
2017-07-23T01:47:27.898Z,0
2017-07-23T01:48:08.768Z,0
2017-07-23T01:48:49.640Z,0
2017-07-23T01:49:30.534Z,0
2017-07-23T01:50:11.426Z,0
2017-07-23T01:50:52.317Z,0
2017-07-23T01:51:33.200Z,0
2017-07-23T01:52:14.092Z,0
2017-07-23T01:52:54.985Z,0
2017-07-23T01:53:35.885Z,0
2017-07-23T01:54:16.766Z,0
2017-07-23T01:54:57.665Z,0
2017-07-23T01:55:38.559Z,0
2017-07-23T01:56:19.471Z,0
2017-07-23T01:57:00.359Z,0
2017-07-23T01:57:41.252Z,0
2017-07-23T01:58:22.147Z,0
2017-07-23T01:59:03.037Z,0
2017-07-23T01:59:43.928Z,0
2017-07-23T02:00:24.814Z,0
2017-07-23T02:01:05.703Z,0
2017-07-23T02:01:46.599Z,0
2017-07-23T02:02:27.488Z,0
2017-07-23T02:03:08.375Z,0
2017-07-23T02:03:49.264Z,0
2017-07-23T02:04:30.164Z,0
2017-07-23T02:05:11.055Z,0
2017-07-23T02:05:51.964Z,0
2017-07-23T02:06:32.850Z,0
2017-07-23T02:07:13.743Z,0
2017-07-23T02:07:54.651Z,0
2017-07-23T02:08:35.525Z,0
2017-07-23T02:09:16.412Z,0
2017-07-23T02:09:57.302Z,0
2017-07-23T02:10:38.199Z,0
2017-07-23T02:11:19.088Z,0
2017-07-23T02:11:59.975Z,0
2017-07-23T02:12:40.876Z,0
2017-07-23T02:13:21.769Z,0
2017-07-23T02:14:02.670Z,0
2017-07-23T02:14:43.566Z,0
2017-07-23T02:15:24.456Z,0
2017-07-23T02:16:05.356Z,0
2017-07-23T02:16:46.243Z,0
2017-07-23T02:17:27.144Z,0
2017-07-23T02:18:08.034Z,0
2017-07-23T02:18:48.930Z,0
2017-07-23T02:19:29.811Z,0
2017-07-23T02:20:10.715Z,0
2017-07-23T02:20:51.596Z,0
2017-07-23T02:21:32.512Z,0
2017-07-23T02:22:13.396Z,0
2017-07-23T02:22:54.283Z,0
2017-07-23T02:23:35.171Z,0
2017-07-23T02:24:16.065Z,0
2017-07-23T02:24:56.956Z,0
2017-07-23T02:25:37.839Z,0
2017-07-23T02:26:18.729Z,0
2017-07-23T02:26:59.629Z,0
2017-07-23T02:27:40.521Z,0
2017-07-23T02:28:21.416Z,0
2017-07-23T02:29:02.302Z,0
2017-07-23T02:29:43.197Z,0
2017-07-23T02:30:24.086Z,0
2017-07-23T02:31:04.972Z,0
2017-07-23T02:31:45.854Z,0
2017-07-23T02:32:26.744Z,0
2017-07-23T02:33:07.632Z,0
2017-07-23T02:33:48.508Z,0
2017-07-23T02:34:29.404Z,0
2017-07-23T02:35:10.303Z,0
2017-07-23T02:35:51.193Z,0
2017-07-23T02:36:32.081Z,0
2017-07-23T02:37:12.997Z,0
2017-07-23T02:37:53.894Z,0
2017-07-23T02:38:34.756Z,0
2017-07-23T02:39:15.668Z,0
2017-07-23T02:39:56.531Z,0
2017-07-23T02:40:37.415Z,0
2017-07-23T02:41:18.318Z,0
2017-07-23T02:41:59.224Z,0
2017-07-23T02:42:40.108Z,0
2017-07-23T02:43:21.021Z,0
2017-07-23T02:44:01.906Z,0
2017-07-23T02:44:42.811Z,0
2017-07-23T02:45:23.699Z,0
2017-07-23T02:46:04.586Z,0
2017-07-23T02:46:45.486Z,0
2017-07-23T02:47:26.386Z,0
2017-07-23T02:48:07.280Z,0
2017-07-23T02:48:48.185Z,0
2017-07-23T02:49:29.054Z,0
2017-07-23T02:50:09.958Z,0
2017-07-23T02:50:50.864Z,0
2017-07-23T02:51:31.747Z,0
2017-07-23T02:52:12.634Z,0
2017-07-23T02:52:53.521Z,0
2017-07-23T02:53:34.419Z,0
2017-07-23T02:54:15.310Z,0
2017-07-23T02:54:56.194Z,0
2017-07-23T02:55:37.086Z,0
2017-07-23T02:56:17.975Z,0
2017-07-23T02:56:58.868Z,0
2017-07-23T02:57:39.753Z,0
2017-07-23T02:58:20.639Z,0
2017-07-23T02:59:01.547Z,0
2017-07-23T02:59:42.437Z,0
2017-07-23T03:00:23.316Z,0
2017-07-23T03:01:04.244Z,0
2017-07-23T03:01:45.127Z,0
2017-07-23T03:02:26.007Z,0
2017-07-23T03:03:06.897Z,0
2017-07-23T03:03:47.804Z,0
2017-07-23T03:04:28.690Z,0
2017-07-23T03:05:09.583Z,0
2017-07-23T03:05:50.464Z,0
2017-07-23T03:06:31.365Z,0
2017-07-23T03:07:12.270Z,0
2017-07-23T03:07:53.156Z,0
2017-07-23T03:08:34.066Z,0
2017-07-23T03:09:14.958Z,0
2017-07-23T03:09:55.830Z,0
2017-07-23T03:10:36.721Z,0
2017-07-23T03:11:17.627Z,5
2017-07-23T03:11:58.502Z,5
2017-07-23T03:12:39.382Z,5
2017-07-23T03:13:20.280Z,5
2017-07-23T03:14:01.178Z,5
2017-07-23T03:14:42.072Z,5
2017-07-23T03:15:22.992Z,5
2017-07-23T03:16:03.856Z,5
2017-07-23T03:16:44.820Z,5
2017-07-23T03:17:25.708Z,10
2017-07-23T03:18:06.610Z,10
2017-07-23T03:18:47.495Z,10
2017-07-23T03:19:28.383Z,10
2017-07-23T03:20:09.281Z,10
2017-07-23T03:20:50.164Z,10
2017-07-23T03:21:31.056Z,10
2017-07-23T03:22:11.951Z,10
2017-07-23T03:22:52.843Z,10
2017-07-23T03:23:33.733Z,10
2017-07-23T03:24:14.638Z,10
2017-07-23T03:24:55.513Z,15
2017-07-23T03:25:36.392Z,15
2017-07-23T03:26:17.287Z,15
2017-07-23T03:26:58.175Z,15
2017-07-23T03:27:39.058Z,15
2017-07-23T03:28:19.944Z,15
2017-07-23T03:29:00.840Z,15
2017-07-23T03:29:41.732Z,15
2017-07-23T03:30:22.613Z,15
2017-07-23T03:31:03.509Z,15
2017-07-23T03:31:44.386Z,15
2017-07-23T03:32:25.272Z,15
2017-07-23T03:33:06.156Z,20
2017-07-23T03:33:47.057Z,20
2017-07-23T03:34:27.942Z,20
2017-07-23T03:35:08.838Z,20
2017-07-23T03:35:49.739Z,20
2017-07-23T03:36:30.618Z,20
2017-07-23T03:37:11.504Z,25
2017-07-23T03:37:52.391Z,25
2017-07-23T03:38:33.279Z,30
2017-07-23T03:39:14.172Z,30
2017-07-23T03:39:55.090Z,30
2017-07-23T03:40:35.961Z,30
2017-07-23T03:41:16.850Z,35
2017-07-23T03:41:57.784Z,35
2017-07-23T03:42:38.680Z,35
2017-07-23T03:43:19.581Z,35
2017-07-23T03:44:00.460Z,40
2017-07-23T03:44:41.359Z,40
2017-07-23T03:45:22.247Z,40
2017-07-23T03:46:03.142Z,35
2017-07-23T03:46:44.041Z,40
2017-07-23T03:47:24.926Z,40
2017-07-23T03:48:05.817Z,40
2017-07-23T03:48:46.707Z,40
2017-07-23T03:49:27.604Z,45
2017-07-23T03:50:08.491Z,45
2017-07-23T03:50:49.382Z,45
2017-07-23T03:51:30.296Z,45
2017-07-23T03:52:11.163Z,45
2017-07-23T03:52:52.069Z,45
2017-07-23T03:53:32.964Z,50
2017-07-23T03:54:13.843Z,50
2017-07-23T03:54:54.736Z,45
2017-07-23T03:55:35.641Z,45
2017-07-23T03:56:16.535Z,45
2017-07-23T03:56:57.428Z,45
2017-07-23T03:57:38.308Z,45
2017-07-23T03:58:19.184Z,45
2017-07-23T03:59:00.066Z,45
2017-07-23T03:59:40.973Z,45
2017-07-23T04:00:21.853Z,45
2017-07-23T04:01:02.726Z,45
2017-07-23T04:01:43.650Z,45
2017-07-23T04:02:24.540Z,45
2017-07-23T04:03:05.434Z,50
2017-07-23T04:03:46.325Z,50
2017-07-23T04:04:27.221Z,50
2017-07-23T04:05:08.115Z,50
2017-07-23T04:05:49.023Z,50
2017-07-23T04:06:29.904Z,50
2017-07-23T04:07:10.791Z,50
2017-07-23T04:07:51.696Z,50
2017-07-23T04:08:32.575Z,55
2017-07-23T04:09:13.467Z,55
2017-07-23T04:09:54.359Z,50
2017-07-23T04:10:35.239Z,55
2017-07-23T04:11:16.121Z,60
2017-07-23T04:11:57.009Z,55
2017-07-23T04:12:37.897Z,55
2017-07-23T04:13:18.780Z,60
2017-07-23T04:13:59.671Z,55
2017-07-23T04:14:40.569Z,60
2017-07-23T04:15:21.450Z,60
2017-07-23T04:16:02.353Z,65
2017-07-23T04:16:43.260Z,65
2017-07-23T04:17:24.136Z,65
2017-07-23T04:18:05.037Z,60
2017-07-23T04:18:45.927Z,65
2017-07-23T04:19:26.808Z,65
2017-07-23T04:20:07.694Z,65
2017-07-23T04:20:48.591Z,65
2017-07-23T04:21:29.470Z,70
2017-07-23T04:22:10.381Z,70
2017-07-23T04:22:51.267Z,65
2017-07-23T04:23:32.149Z,65
2017-07-23T04:24:13.022Z,60
2017-07-23T04:24:53.917Z,55
2017-07-23T04:25:34.811Z,55
2017-07-23T04:26:15.700Z,50
2017-07-23T04:26:56.618Z,50
2017-07-23T04:27:37.501Z,50
2017-07-23T04:28:18.365Z,55
2017-07-23T04:28:59.244Z,50
2017-07-23T04:29:40.158Z,50
2017-07-23T04:30:21.035Z,50
2017-07-23T04:31:01.957Z,45
2017-07-23T04:31:42.851Z,50
2017-07-23T04:32:23.725Z,45
2017-07-23T04:34:37.898Z,45
2017-07-23T04:35:18.800Z,45
2017-07-23T04:35:59.663Z,45
2017-07-23T04:36:40.542Z,45
2017-07-23T04:37:21.441Z,45
2017-07-23T04:38:02.343Z,45
2017-07-23T04:38:43.223Z,45
2017-07-23T04:39:24.111Z,45
2017-07-23T04:40:05.013Z,50
2017-07-23T04:40:45.899Z,45
2017-07-23T04:41:26.791Z,50
2017-07-23T04:42:07.688Z,50
2017-07-23T04:42:48.556Z,50
2017-07-23T04:43:29.434Z,50
2017-07-23T04:44:10.333Z,50
2017-07-23T04:44:51.223Z,55
2017-07-23T04:45:32.100Z,55
2017-07-23T04:46:12.974Z,55
2017-07-23T04:46:53.861Z,60
2017-07-23T04:47:34.784Z,60
2017-07-23T04:48:15.634Z,65
2017-07-23T04:48:56.491Z,65
2017-07-23T04:49:37.374Z,60
2017-07-23T04:50:18.259Z,60
2017-07-23T04:50:59.148Z,65
2017-07-23T04:51:40.029Z,65
2017-07-23T04:52:20.929Z,70
2017-07-23T04:53:01.829Z,70
2017-07-23T04:53:42.705Z,75
2017-07-23T04:54:23.606Z,85
2017-07-23T04:55:04.488Z,85
2017-07-23T04:55:45.381Z,90
2017-07-23T04:56:26.246Z,95
2017-07-23T04:57:07.139Z,90
2017-07-23T04:57:48.027Z,90
2017-07-23T04:58:28.914Z,100
2017-07-23T04:59:09.789Z,100
2017-07-23T04:59:50.687Z,100
2017-07-23T05:00:31.605Z,95
2017-07-23T05:01:12.532Z,105
2017-07-23T05:01:53.405Z,95
2017-07-23T05:02:34.294Z,95
2017-07-23T05:03:15.195Z,100
2017-07-23T05:03:56.074Z,100
2017-07-23T05:04:36.969Z,105
2017-07-23T05:05:17.874Z,105
2017-07-23T05:05:58.772Z,125
2017-07-23T05:06:39.673Z,110
2017-07-23T05:07:20.562Z,100
2017-07-23T05:08:01.466Z,100
2017-07-23T05:08:42.334Z,105
2017-07-23T05:09:23.233Z,115
2017-07-23T05:10:04.123Z,125
2017-07-23T05:10:45.013Z,130
2017-07-23T05:11:25.913Z,130
2017-07-23T05:12:06.789Z,125
2017-07-23T05:12:47.685Z,120
2017-07-23T05:13:28.583Z,120
2017-07-23T05:14:09.462Z,125
2017-07-23T05:14:50.365Z,120
2017-07-23T05:15:31.252Z,120
2017-07-23T05:16:12.140Z,120
2017-07-23T05:16:53.020Z,120
2017-07-23T05:17:33.929Z,125
2017-07-23T05:18:14.825Z,125
2017-07-23T05:18:55.718Z,135
2017-07-23T05:19:36.600Z,125
2017-07-23T05:20:17.486Z,115
2017-07-23T05:20:58.374Z,125
2017-07-23T05:21:39.266Z,125
2017-07-23T05:22:20.156Z,130
2017-07-23T05:23:01.030Z,135
2017-07-23T05:23:41.928Z,135
2017-07-23T05:24:22.818Z,130
2017-07-23T05:25:03.702Z,140
2017-07-23T05:25:44.599Z,145
2017-07-23T05:26:25.497Z,150
2017-07-23T05:27:06.387Z,145
2017-07-23T05:27:47.269Z,145
2017-07-23T05:28:28.169Z,165
2017-07-23T05:29:09.046Z,170
2017-07-23T05:29:49.938Z,140
2017-07-23T05:30:30.838Z,135
2017-07-23T05:31:11.719Z,155
2017-07-23T05:31:52.607Z,165
2017-07-23T05:32:33.504Z,170
2017-07-23T05:33:14.392Z,165
2017-07-23T05:33:55.272Z,155
2017-07-23T05:34:36.158Z,140
2017-07-23T05:35:17.049Z,160
2017-07-23T05:35:57.950Z,170
2017-07-23T05:36:38.847Z,155
2017-07-23T05:37:19.741Z,160
2017-07-23T05:38:00.626Z,165
2017-07-23T05:38:41.524Z,155
2017-07-23T05:39:22.415Z,145
2017-07-23T05:40:03.297Z,160
2017-07-23T05:40:44.201Z,185
2017-07-23T05:41:25.091Z,185
2017-07-23T05:42:05.976Z,180
2017-07-23T05:42:46.875Z,175
2017-07-23T05:43:27.764Z,180
2017-07-23T05:44:08.658Z,175
2017-07-23T05:44:49.553Z,200
2017-07-23T05:45:30.446Z,225
2017-07-23T05:46:11.342Z,230
2017-07-23T05:46:52.250Z,230
2017-07-23T05:47:33.188Z,230
2017-07-23T05:48:14.077Z,235
2017-07-23T05:48:54.957Z,240
2017-07-23T05:49:35.852Z,275
2017-07-23T05:50:16.742Z,275
2017-07-23T05:50:57.630Z,255
2017-07-23T05:51:38.510Z,240
2017-07-23T05:52:19.402Z,245
2017-07-23T05:53:00.297Z,225
2017-07-23T05:53:41.177Z,245
2017-07-23T05:54:22.074Z,265
2017-07-23T05:55:02.977Z,285
2017-07-23T05:55:43.865Z,290
2017-07-23T05:56:24.770Z,275
2017-07-23T05:57:05.659Z,275
2017-07-23T05:57:46.549Z,260
2017-07-23T05:58:27.446Z,255
2017-07-23T05:59:08.333Z,265
2017-07-23T05:59:49.226Z,280
2017-07-23T06:00:30.127Z,290
2017-07-23T06:01:11.005Z,315
2017-07-23T06:01:51.888Z,335
2017-07-23T06:02:32.775Z,335
2017-07-23T06:03:13.669Z,340
2017-07-23T06:03:54.550Z,330
2017-07-23T06:04:35.443Z,345
2017-07-23T06:05:16.329Z,365
2017-07-23T06:05:57.218Z,365
2017-07-23T06:06:38.108Z,385
2017-07-23T06:07:19.008Z,395
2017-07-23T06:07:59.897Z,380
2017-07-23T06:08:40.790Z,365
2017-07-23T06:09:21.683Z,375
2017-07-23T06:10:03.083Z,400
2017-07-23T06:10:45.019Z,415
2017-07-23T06:11:25.908Z,420
2017-07-23T06:12:06.810Z,425
2017-07-23T06:12:47.715Z,420
2017-07-23T06:13:28.598Z,430
2017-07-23T06:14:09.493Z,420
2017-07-23T06:14:50.388Z,425
2017-07-23T06:15:31.277Z,425
2017-07-23T06:16:12.157Z,425
2017-07-23T06:16:53.086Z,430
2017-07-23T06:17:33.955Z,420
2017-07-23T06:18:14.831Z,485
2017-07-23T06:18:55.742Z,470
2017-07-23T06:19:36.625Z,340
2017-07-23T06:20:17.519Z,195
2017-07-23T06:20:58.411Z,105
2017-07-23T06:21:39.339Z,50
2017-07-23T06:22:20.234Z,25
2017-07-23T06:23:01.126Z,15
2017-07-23T06:23:42.011Z,20
2017-07-23T06:24:22.918Z,40
2017-07-23T06:25:03.796Z,90
2017-07-23T06:25:44.702Z,145
2017-07-23T06:26:25.592Z,170
2017-07-23T06:27:06.461Z,165
2017-07-23T06:27:47.355Z,135
2017-07-23T06:28:28.253Z,100
2017-07-23T06:29:09.147Z,50
2017-07-23T06:29:50.055Z,30
2017-07-23T06:30:30.947Z,30
2017-07-23T06:31:11.856Z,35
2017-07-23T06:31:52.758Z,35
2017-07-23T06:32:33.655Z,40
2017-07-23T06:33:14.558Z,45
2017-07-23T06:33:55.436Z,50
2017-07-23T06:34:36.321Z,60
2017-07-23T06:35:17.225Z,65
2017-07-23T06:35:58.117Z,60
2017-07-23T06:36:39.009Z,55
2017-07-23T06:37:19.899Z,60
2017-07-23T06:38:00.796Z,65
2017-07-23T06:38:41.676Z,65
2017-07-23T06:39:22.579Z,70
2017-07-23T06:40:03.505Z,75
2017-07-23T06:40:44.378Z,85
2017-07-23T06:41:25.284Z,85
2017-07-23T06:42:06.169Z,85
2017-07-23T06:42:47.068Z,90
2017-07-23T06:43:27.958Z,100
2017-07-23T06:44:08.844Z,100
2017-07-23T06:44:49.737Z,95
2017-07-23T06:45:30.633Z,105
2017-07-23T06:46:11.547Z,90
2017-07-23T06:46:52.444Z,80
2017-07-23T06:47:33.316Z,100
2017-07-23T06:48:14.225Z,105
2017-07-23T06:48:55.120Z,120
2017-07-23T06:49:36.011Z,130
2017-07-23T06:50:16.898Z,130
2017-07-23T06:50:57.798Z,125
2017-07-23T06:51:38.689Z,125
2017-07-23T06:52:19.579Z,110
2017-07-23T06:53:00.479Z,95
2017-07-23T06:53:41.377Z,80
2017-07-23T06:54:22.275Z,70
2017-07-23T06:55:03.162Z,60
2017-07-23T06:55:44.037Z,50
2017-07-23T06:56:24.946Z,45
2017-07-23T06:57:05.841Z,35
2017-07-23T06:57:46.734Z,30
2017-07-23T06:58:27.623Z,25
2017-07-23T06:59:08.514Z,25
2017-07-23T06:59:49.401Z,25
2017-07-23T07:00:30.306Z,20
2017-07-23T07:01:11.189Z,20
2017-07-23T07:01:52.071Z,20
2017-07-23T07:02:32.977Z,20
2017-07-23T07:03:13.864Z,20
2017-07-23T07:03:54.742Z,20
2017-07-23T07:04:35.646Z,20
2017-07-23T07:05:16.531Z,20
2017-07-23T07:05:57.401Z,20
2017-07-23T07:06:38.284Z,20
2017-07-23T07:07:19.196Z,20
2017-07-23T07:08:00.087Z,20
2017-07-23T07:08:40.984Z,20
2017-07-23T07:09:21.892Z,20
2017-07-23T07:10:02.765Z,20
2017-07-23T07:10:43.659Z,25
2017-07-23T07:11:24.561Z,25
2017-07-23T07:12:05.436Z,25
2017-07-23T07:12:46.335Z,30
2017-07-23T07:13:27.231Z,30
2017-07-23T07:14:08.116Z,35
2017-07-23T07:14:49.007Z,35
2017-07-23T07:15:29.901Z,40
2017-07-23T07:16:10.792Z,45
2017-07-23T07:16:51.682Z,45
2017-07-23T07:17:32.582Z,50
2017-07-23T07:18:13.476Z,55
2017-07-23T07:18:54.373Z,55
2017-07-23T07:19:35.259Z,55
2017-07-23T07:20:16.148Z,60
2017-07-23T07:20:57.062Z,60
2017-07-23T07:21:37.949Z,60
2017-07-23T07:22:18.851Z,60
2017-07-23T07:22:59.752Z,60
2017-07-23T07:23:40.638Z,60
2017-07-23T07:24:21.533Z,60
2017-07-23T07:25:02.429Z,55
2017-07-23T07:25:43.317Z,55
2017-07-23T07:26:24.213Z,55
2017-07-23T07:27:05.112Z,50
2017-07-23T07:27:46.018Z,50
2017-07-23T07:28:26.919Z,45
2017-07-23T07:29:07.808Z,45
2017-07-23T07:29:48.698Z,40
2017-07-23T07:30:29.590Z,40
2017-07-23T07:31:10.484Z,40
2017-07-23T07:31:51.373Z,35
2017-07-23T07:32:32.283Z,35
2017-07-23T07:33:13.163Z,35
2017-07-23T07:33:54.055Z,35
2017-07-23T07:34:34.953Z,35
2017-07-23T07:35:15.838Z,35
2017-07-23T07:35:56.730Z,35
2017-07-23T07:36:37.626Z,35
2017-07-23T07:37:18.512Z,35
2017-07-23T07:37:59.397Z,40
2017-07-23T07:38:40.303Z,40
2017-07-23T07:39:21.192Z,40
2017-07-23T07:40:02.078Z,40
2017-07-23T07:40:42.985Z,45
2017-07-23T07:41:23.864Z,45
2017-07-23T07:42:04.769Z,50
2017-07-23T07:42:45.660Z,50
2017-07-23T07:43:26.542Z,55
2017-07-23T07:44:07.424Z,55
2017-07-23T07:44:48.320Z,60
2017-07-23T07:45:29.214Z,60
2017-07-23T07:46:10.107Z,65
2017-07-23T07:46:51.000Z,65
2017-07-23T07:47:31.894Z,70
2017-07-23T07:48:12.777Z,70
2017-07-23T07:48:53.679Z,75
2017-07-23T07:49:34.566Z,80
2017-07-23T07:50:15.450Z,85
2017-07-23T07:50:56.361Z,90
2017-07-23T07:51:37.240Z,90
2017-07-23T07:52:18.148Z,95
2017-07-23T07:52:59.038Z,100
2017-07-23T07:53:39.922Z,105
2017-07-23T07:54:20.822Z,105
2017-07-23T07:55:01.715Z,110
2017-07-23T07:55:42.687Z,115
2017-07-23T07:56:23.554Z,120
2017-07-23T07:57:04.445Z,130
2017-07-23T07:57:45.349Z,135
2017-07-23T07:58:26.239Z,150
2017-07-23T07:59:07.121Z,160
2017-07-23T07:59:48.020Z,175
2017-07-23T08:00:28.905Z,185
2017-07-23T08:01:09.795Z,190
2017-07-23T08:01:50.681Z,195
2017-07-23T08:02:31.582Z,190
2017-07-23T08:03:12.466Z,185
2017-07-23T08:03:53.353Z,185
2017-07-23T08:04:34.252Z,185
2017-07-23T08:05:15.145Z,190
2017-07-23T08:05:56.047Z,195
2017-07-23T08:06:36.930Z,200
2017-07-23T08:07:17.821Z,205
2017-07-23T08:07:58.743Z,210
2017-07-23T08:08:39.612Z,215
2017-07-23T08:09:20.496Z,215
2017-07-23T08:10:01.389Z,210
2017-07-23T08:10:42.280Z,205
2017-07-23T08:11:23.179Z,195
2017-07-23T08:12:04.073Z,190
2017-07-23T08:12:44.967Z,190
2017-07-23T08:13:25.853Z,190
2017-07-23T08:14:06.745Z,190
2017-07-23T08:14:47.643Z,195
2017-07-23T08:15:28.546Z,195
2017-07-23T08:16:09.445Z,205
2017-07-23T08:16:50.337Z,210
2017-07-23T08:17:31.233Z,210
2017-07-23T08:18:12.124Z,200
2017-07-23T08:18:53.009Z,200
2017-07-23T08:19:33.912Z,215
2017-07-23T08:20:14.806Z,230
2017-07-23T08:20:55.699Z,260
2017-07-23T08:21:36.589Z,270
2017-07-23T08:22:17.482Z,270
2017-07-23T08:22:58.379Z,270
2017-07-23T08:23:39.274Z,260
2017-07-23T08:24:20.165Z,260
2017-07-23T08:25:01.068Z,270
2017-07-23T08:25:41.979Z,285
2017-07-23T08:26:22.852Z,295
2017-07-23T08:27:03.755Z,310
2017-07-23T08:27:44.646Z,325
2017-07-23T08:28:25.535Z,315
2017-07-23T08:29:06.424Z,310
2017-07-23T08:29:47.306Z,300
2017-07-23T08:30:28.204Z,295
2017-07-23T08:31:09.106Z,295
2017-07-23T08:31:50.006Z,300
2017-07-23T08:32:30.901Z,315
2017-07-23T08:33:11.800Z,335
2017-07-23T08:33:52.701Z,350
2017-07-23T08:34:33.600Z,365
2017-07-23T08:35:14.497Z,375
2017-07-23T08:35:55.383Z,380
2017-07-23T08:36:36.275Z,375
2017-07-23T08:37:17.170Z,365
2017-07-23T08:37:58.069Z,370
2017-07-23T08:38:38.961Z,380
2017-07-23T08:39:19.847Z,390
2017-07-23T08:40:00.747Z,385
2017-07-23T08:40:41.645Z,385
2017-07-23T08:41:22.540Z,385
2017-07-23T08:42:03.435Z,355
2017-07-23T08:42:44.336Z,335
2017-07-23T08:43:25.233Z,325
2017-07-23T08:44:06.116Z,320
2017-07-23T08:44:47.018Z,310
2017-07-23T08:45:27.914Z,295
2017-07-23T08:46:08.808Z,320
2017-07-23T08:46:49.706Z,350
2017-07-23T08:47:30.602Z,420
2017-07-23T08:48:11.506Z,485
2017-07-23T08:48:52.409Z,555
2017-07-23T08:49:33.300Z,770
2017-07-23T08:50:14.209Z,795
2017-07-23T08:50:55.096Z,920
2017-07-23T08:51:35.997Z,875
2017-07-23T08:52:16.882Z,580
2017-07-23T08:52:57.767Z,540
2017-07-23T08:53:38.670Z,545
2017-07-23T08:54:19.562Z,560
2017-07-23T08:55:00.456Z,585
2017-07-23T08:55:41.350Z,665
2017-07-23T08:56:22.242Z,735
2017-07-23T08:57:03.142Z,1065
2017-07-23T08:57:44.046Z,965
2017-07-23T08:58:24.943Z,705
2017-07-23T08:59:05.850Z,650
2017-07-23T08:59:46.734Z,895
2017-07-23T09:00:27.624Z,695
2017-07-23T09:01:08.531Z,635
2017-07-23T09:01:49.410Z,840
2017-07-23T09:02:30.291Z,505
2017-07-23T09:03:11.193Z,485
2017-07-23T09:03:52.097Z,485
2017-07-23T09:04:32.987Z,435
2017-07-23T09:05:13.887Z,410
2017-07-23T09:05:54.779Z,375
2017-07-23T09:06:35.699Z,250
2017-07-23T09:07:16.581Z,220
2017-07-23T09:07:57.482Z,240
2017-07-23T09:08:38.373Z,255
2017-07-23T09:09:19.274Z,285
2017-07-23T09:10:00.170Z,280
2017-07-23T09:10:41.069Z,325
2017-07-23T09:11:21.962Z,400
2017-07-23T09:12:02.858Z,335
2017-07-23T09:12:43.754Z,445
2017-07-23T09:13:24.655Z,2035
2017-07-23T09:14:05.554Z,750
2017-07-23T09:14:46.453Z,495
2017-07-23T09:15:27.352Z,395
2017-07-23T09:16:08.260Z,400
2017-07-23T09:16:49.164Z,720
2017-07-23T09:17:30.054Z,860
2017-07-23T09:18:10.955Z,795
2017-07-23T09:18:51.859Z,2620
2017-07-23T09:19:32.759Z,2155
2017-07-23T09:20:13.665Z,1505
2017-07-23T09:20:54.564Z,1285
2017-07-23T09:21:35.460Z,1685
2017-07-23T09:22:16.354Z,2525
2017-07-23T09:22:57.257Z,2795
2017-07-23T09:23:38.172Z,2720
2017-07-23T09:24:19.049Z,1395
2017-07-23T09:24:59.953Z,1700
2017-07-23T09:25:40.857Z,1440
2017-07-23T09:26:21.759Z,1105
2017-07-23T09:27:02.666Z,1095
2017-07-23T09:27:43.569Z,1100
2017-07-23T09:28:24.469Z,1805
2017-07-23T09:29:05.383Z,790
2017-07-23T09:29:46.286Z,955
2017-07-23T09:30:27.182Z,730
2017-07-23T09:31:08.086Z,1565
2017-07-23T09:31:48.988Z,660
2017-07-23T09:32:29.902Z,450
2017-07-23T09:33:10.807Z,690
2017-07-23T09:33:51.712Z,655
2017-07-23T09:34:32.606Z,635
2017-07-23T09:35:13.507Z,570
2017-07-23T09:35:54.422Z,560
2017-07-23T09:36:35.327Z,725
2017-07-23T09:37:16.229Z,1825
2017-07-23T09:37:57.143Z,2090
2017-07-23T09:38:38.041Z,1270
2017-07-23T09:39:18.932Z,1185
2017-07-23T09:39:59.848Z,710
2017-07-23T09:40:40.723Z,495
2017-07-23T09:41:21.629Z,455
2017-07-23T09:42:02.531Z,445
2017-07-23T09:42:43.428Z,390
2017-07-23T09:43:24.336Z,300
2017-07-23T09:44:05.230Z,265